sensor_id;sensor_type;location;lat;lon;timestamp;pressure;altitude;pressure_sealevel;temperature;humidity
47080;BME280;33067;49.296;14.470;2022-09-09T00:00:17;96784.69;;;18.85;41.31
47080;BME280;33067;49.296;14.470;2022-09-09T00:02:43;96785.19;;;18.93;41.19
47080;BME280;33067;49.296;14.470;2022-09-09T00:05:14;96783.98;;;18.91;41.38
47080;BME280;33067;49.296;14.470;2022-09-09T00:07:40;96780.17;;;18.78;41.29
47080;BME280;33067;49.296;14.470;2022-09-09T00:10:03;96784.30;;;19.14;40.86
47080;BME280;33067;49.296;14.470;2022-09-09T00:12:27;96787.28;;;18.68;41.25
47080;BME280;33067;49.296;14.470;2022-09-09T00:14:51;96790.35;;;18.87;41.05
47080;BME280;33067;49.296;14.470;2022-09-09T00:17:16;96789.65;;;18.74;41.30
47080;BME280;33067;49.296;14.470;2022-09-09T00:19:41;96785.36;;;18.67;41.42
47080;BME280;33067;49.296;14.470;2022-09-09T00:22:12;96784.91;;;18.74;41.32
47080;BME280;33067;49.296;14.470;2022-09-09T00:24:29;96786.87;;;18.92;41.07
47080;BME280;33067;49.296;14.470;2022-09-09T00:26:56;96788.96;;;19.06;40.90
47080;BME280;33067;49.296;14.470;2022-09-09T00:29:25;96788.57;;;19.13;40.97
47080;BME280;33067;49.296;14.470;2022-09-09T00:31:43;96783.62;;;19.18;40.97
47080;BME280;33067;49.296;14.470;2022-09-09T00:34:12;96783.99;;;19.22;40.94
47080;BME280;33067;49.296;14.470;2022-09-09T00:36:35;96786.09;;;19.14;40.65
47080;BME280;33067;49.296;14.470;2022-09-09T00:39:00;96782.74;;;19.00;40.30
47080;BME280;33067;49.296;14.470;2022-09-09T00:41:35;96780.44;;;18.83;40.84
47080;BME280;33067;49.296;14.470;2022-09-09T00:43:56;96781.37;;;18.90;40.89
47080;BME280;33067;49.296;14.470;2022-09-09T00:46:24;96786.80;;;18.91;40.78
47080;BME280;33067;49.296;14.470;2022-09-09T00:48:47;96787.54;;;18.96;40.55
47080;BME280;33067;49.296;14.470;2022-09-09T00:51:11;96788.70;;;18.78;40.84
47080;BME280;33067;49.296;14.470;2022-09-09T00:53:36;96784.34;;;18.58;41.15
47080;BME280;33067;49.296;14.470;2022-09-09T00:56:01;96780.86;;;18.42;41.17
47080;BME280;33067;49.296;14.470;2022-09-09T00:58:20;96780.85;;;18.53;41.03
47080;BME280;33067;49.296;14.470;2022-09-09T01:00:48;96780.97;;;18.50;41.17
47080;BME280;33067;49.296;14.470;2022-09-09T01:03:20;96780.33;;;18.45;41.31
47080;BME280;33067;49.296;14.470;2022-09-09T01:05:41;96779.19;;;18.39;40.91
47080;BME280;33067;49.296;14.470;2022-09-09T01:08:01;96774.42;;;18.34;41.03
47080;BME280;33067;49.296;14.470;2022-09-09T01:10:33;96773.05;;;18.07;41.48
47080;BME280;33067;49.296;14.470;2022-09-09T01:12:52;96771.07;;;18.35;41.49
47080;BME280;33067;49.296;14.470;2022-09-09T01:15:20;96773.23;;;18.19;41.34
47080;BME280;33067;49.296;14.470;2022-09-09T01:17:49;96774.92;;;18.32;41.03
47080;BME280;33067;49.296;14.470;2022-09-09T01:20:13;96774.85;;;18.17;41.27
47080;BME280;33067;49.296;14.470;2022-09-09T01:22:36;96774.28;;;18.29;41.61
47080;BME280;33067;49.296;14.470;2022-09-09T01:27:23;96776.25;;;18.08;41.48
47080;BME280;33067;49.296;14.470;2022-09-09T01:29:48;96777.31;;;18.72;41.20
47080;BME280;33067;49.296;14.470;2022-09-09T01:34:40;96773.80;;;18.04;41.45
47080;BME280;33067;49.296;14.470;2022-09-09T01:37:06;96772.80;;;17.94;41.60
47080;BME280;33067;49.296;14.470;2022-09-09T01:39:29;96770.06;;;18.19;41.42
47080;BME280;33067;49.296;14.470;2022-09-09T01:41:54;96767.39;;;17.96;41.60
47080;BME280;33067;49.296;14.470;2022-09-09T01:44:19;96766.66;;;18.08;41.64
47080;BME280;33067;49.296;14.470;2022-09-09T01:46:44;96770.54;;;18.02;41.54
47080;BME280;33067;49.296;14.470;2022-09-09T01:49:09;96773.24;;;18.02;42.22
47080;BME280;33067;49.296;14.470;2022-09-09T01:51:35;96775.20;;;17.85;42.22
47080;BME280;33067;49.296;14.470;2022-09-09T01:54:00;96778.27;;;17.86;42.09
47080;BME280;33067;49.296;14.470;2022-09-09T01:56:35;96779.30;;;17.91;42.28
47080;BME280;33067;49.296;14.470;2022-09-09T01:59:00;96776.83;;;17.35;43.18
47080;BME280;33067;49.296;14.470;2022-09-09T02:01:23;96778.38;;;17.55;43.02
47080;BME280;33067;49.296;14.470;2022-09-09T02:03:47;96783.80;;;17.75;42.95
47080;BME280;33067;49.296;14.470;2022-09-09T02:06:13;96786.66;;;17.70;42.98
47080;BME280;33067;49.296;14.470;2022-09-09T02:08:38;96785.29;;;18.03;42.34
47080;BME280;33067;49.296;14.470;2022-09-09T02:13:04;96790.91;;;18.74;41.14
47080;BME280;33067;49.296;14.470;2022-09-09T02:15:30;96792.17;;;18.10;41.69
47080;BME280;33067;49.296;14.470;2022-09-09T02:17:51;96799.19;;;18.01;42.44
47080;BME280;33067;49.296;14.470;2022-09-09T02:20:15;96799.60;;;17.98;42.67
47080;BME280;33067;49.296;14.470;2022-09-09T02:22:42;96804.22;;;17.82;43.07
47080;BME280;33067;49.296;14.470;2022-09-09T02:25:10;96806.24;;;17.93;43.37
47080;BME280;33067;49.296;14.470;2022-09-09T02:27:30;96807.45;;;17.68;43.60
47080;BME280;33067;49.296;14.470;2022-09-09T02:29:57;96806.20;;;17.48;43.72
47080;BME280;33067;49.296;14.470;2022-09-09T02:34:50;96812.46;;;17.16;43.83
47080;BME280;33067;49.296;14.470;2022-09-09T02:37:12;96812.10;;;17.43;43.56
47080;BME280;33067;49.296;14.470;2022-09-09T02:39:36;96809.70;;;17.78;42.97
47080;BME280;33067;49.296;14.470;2022-09-09T02:42:03;96811.05;;;17.96;42.40
47080;BME280;33067;49.296;14.470;2022-09-09T02:44:27;96812.64;;;17.93;42.49
47080;BME280;33067;49.296;14.470;2022-09-09T02:47:05;96806.53;;;17.81;42.40
47080;BME280;33067;49.296;14.470;2022-09-09T02:49:21;96809.59;;;17.99;42.09
47080;BME280;33067;49.296;14.470;2022-09-09T02:51:49;96804.22;;;18.39;41.79
47080;BME280;33067;49.296;14.470;2022-09-09T02:54:13;96798.73;;;18.15;41.90
47080;BME280;33067;49.296;14.470;2022-09-09T02:56:37;96798.54;;;17.85;42.26
47080;BME280;33067;49.296;14.470;2022-09-09T02:58:58;96794.96;;;18.03;42.51
47080;BME280;33067;49.296;14.470;2022-09-09T03:01:23;96791.35;;;18.40;42.34
47080;BME280;33067;49.296;14.470;2022-09-09T03:03:48;96792.29;;;18.13;42.59
47080;BME280;33067;49.296;14.470;2022-09-09T03:06:14;96790.41;;;18.21;42.17
47080;BME280;33067;49.296;14.470;2022-09-09T03:08:39;96785.93;;;18.48;42.24
47080;BME280;33067;49.296;14.470;2022-09-09T03:11:04;96784.21;;;17.67;43.08
47080;BME280;33067;49.296;14.470;2022-09-09T03:13:29;96786.17;;;18.20;42.98
47080;BME280;33067;49.296;14.470;2022-09-09T03:15:54;96790.87;;;17.84;43.40
47080;BME280;33067;49.296;14.470;2022-09-09T03:18:20;96789.70;;;17.71;42.93
47080;BME280;33067;49.296;14.470;2022-09-09T03:20:46;96792.55;;;17.75;42.96
47080;BME280;33067;49.296;14.470;2022-09-09T03:23:10;96789.94;;;17.98;43.02
47080;BME280;33067;49.296;14.470;2022-09-09T03:25:35;96790.38;;;18.12;42.77
47080;BME280;33067;49.296;14.470;2022-09-09T03:28:00;96789.69;;;17.76;42.37
47080;BME280;33067;49.296;14.470;2022-09-09T03:30:27;96787.74;;;17.94;41.90
47080;BME280;33067;49.296;14.470;2022-09-09T03:32:51;96785.66;;;18.22;42.04
47080;BME280;33067;49.296;14.470;2022-09-09T03:35:17;96786.63;;;18.08;42.40
47080;BME280;33067;49.296;14.470;2022-09-09T03:37:43;96788.91;;;17.85;41.81
47080;BME280;33067;49.296;14.470;2022-09-09T03:40:07;96791.89;;;18.13;41.72
47080;BME280;33067;49.296;14.470;2022-09-09T03:44:57;96797.27;;;18.24;41.48
47080;BME280;33067;49.296;14.470;2022-09-09T03:47:21;96801.98;;;18.01;41.72
47080;BME280;33067;49.296;14.470;2022-09-09T03:49:47;96803.07;;;17.92;41.86
47080;BME280;33067;49.296;14.470;2022-09-09T03:52:12;96805.09;;;17.92;42.29
47080;BME280;33067;49.296;14.470;2022-09-09T03:54:37;96806.17;;;18.01;42.58
47080;BME280;33067;49.296;14.470;2022-09-09T03:57:02;96805.48;;;17.86;42.36
47080;BME280;33067;49.296;14.470;2022-09-09T03:59:27;96807.71;;;18.10;42.23
47080;BME280;33067;49.296;14.470;2022-09-09T04:01:52;96810.18;;;18.06;42.40
47080;BME280;33067;49.296;14.470;2022-09-09T04:04:18;96812.11;;;18.19;42.34
47080;BME280;33067;49.296;14.470;2022-09-09T04:06:43;96815.61;;;17.98;42.84
47080;BME280;33067;49.296;14.470;2022-09-09T04:09:08;96815.25;;;17.98;42.76
47080;BME280;33067;49.296;14.470;2022-09-09T04:11:33;96814.95;;;17.92;42.98
47080;BME280;33067;49.296;14.470;2022-09-09T04:13:58;96811.34;;;17.85;42.70
47080;BME280;33067;49.296;14.470;2022-09-09T04:16:24;96806.99;;;18.24;42.27
47080;BME280;33067;49.296;14.470;2022-09-09T04:18:49;96800.20;;;18.09;42.12
47080;BME280;33067;49.296;14.470;2022-09-09T04:21:14;96800.35;;;17.73;42.36
47080;BME280;33067;49.296;14.470;2022-09-09T04:26:27;96792.71;;;17.73;42.07
47080;BME280;33067;49.296;14.470;2022-09-09T04:28:43;96793.23;;;17.78;42.05
47080;BME280;33067;49.296;14.470;2022-09-09T04:30:55;96796.00;;;17.89;41.85
47080;BME280;33067;49.296;14.470;2022-09-09T04:33:20;96796.17;;;18.13;41.69
47080;BME280;33067;49.296;14.470;2022-09-09T04:35:47;96794.42;;;18.12;41.89
47080;BME280;33067;49.296;14.470;2022-09-09T04:38:10;96796.50;;;18.20;41.82
47080;BME280;33067;49.296;14.470;2022-09-09T04:40:35;96798.77;;;18.19;42.04
47080;BME280;33067;49.296;14.470;2022-09-09T04:43:04;96799.19;;;18.45;42.14
47080;BME280;33067;49.296;14.470;2022-09-09T04:45:27;96798.01;;;18.43;42.14
47080;BME280;33067;49.296;14.470;2022-09-09T04:47:58;96798.34;;;18.33;41.78
47080;BME280;33067;49.296;14.470;2022-09-09T04:50:17;96797.44;;;18.30;41.94
47080;BME280;33067;49.296;14.470;2022-09-09T04:52:42;96798.31;;;18.51;42.13
47080;BME280;33067;49.296;14.470;2022-09-09T04:55:08;96794.84;;;18.35;42.20
47080;BME280;33067;49.296;14.470;2022-09-09T04:57:32;96793.43;;;17.92;42.54
47080;BME280;33067;49.296;14.470;2022-09-09T04:59:58;96795.35;;;18.32;42.84
47080;BME280;33067;49.296;14.470;2022-09-09T05:02:27;96790.83;;;18.17;43.17
47080;BME280;33067;49.296;14.470;2022-09-09T05:04:47;96792.91;;;17.96;43.54
47080;BME280;33067;49.296;14.470;2022-09-09T05:09:38;96788.45;;;17.51;44.38
47080;BME280;33067;49.296;14.470;2022-09-09T05:12:07;96790.44;;;16.96;44.81
47080;BME280;33067;49.296;14.470;2022-09-09T05:14:33;96791.78;;;16.96;45.04
47080;BME280;33067;49.296;14.470;2022-09-09T05:17:28;96798.15;;;17.34;45.02
47080;BME280;33067;49.296;14.470;2022-09-09T05:19:19;96797.97;;;17.22;44.70
47080;BME280;33067;49.296;14.470;2022-09-09T05:21:44;96795.55;;;17.49;44.37
47080;BME280;33067;49.296;14.470;2022-09-09T05:24:09;96797.88;;;17.86;43.69
47080;BME280;33067;49.296;14.470;2022-09-09T05:26:39;96798.00;;;18.04;43.51
47080;BME280;33067;49.296;14.470;2022-09-09T05:29:09;96797.53;;;18.14;43.57
47080;BME280;33067;49.296;14.470;2022-09-09T05:31:35;96804.15;;;18.13;43.83
47080;BME280;33067;49.296;14.470;2022-09-09T05:38:45;96804.41;;;18.21;43.12
47080;BME280;33067;49.296;14.470;2022-09-09T05:41:06;96806.73;;;18.56;43.07
47080;BME280;33067;49.296;14.470;2022-09-09T05:43:30;96803.87;;;18.59;43.10
47080;BME280;33067;49.296;14.470;2022-09-09T05:46:08;96806.48;;;18.49;42.70
47080;BME280;33067;49.296;14.470;2022-09-09T05:48:22;96801.94;;;18.58;42.43
47080;BME280;33067;49.296;14.470;2022-09-09T05:50:53;96795.85;;;18.57;42.54
47080;BME280;33067;49.296;14.470;2022-09-09T05:53:11;96799.35;;;18.66;42.76
47080;BME280;33067;49.296;14.470;2022-09-09T05:58:09;96798.68;;;19.06;42.10
47080;BME280;33067;49.296;14.470;2022-09-09T06:00:37;96803.87;;;19.15;42.22
47080;BME280;33067;49.296;14.470;2022-09-09T06:03:03;96810.05;;;19.35;42.29
47080;BME280;33067;49.296;14.470;2022-09-09T06:05:53;96818.54;;;19.36;42.04
47080;BME280;33067;49.296;14.470;2022-09-09T06:08:03;96817.01;;;19.44;41.86
47080;BME280;33067;49.296;14.470;2022-09-09T06:10:28;96808.13;;;19.07;42.19
47080;BME280;33067;49.296;14.470;2022-09-09T06:12:51;96808.23;;;19.32;42.16
47080;BME280;33067;49.296;14.470;2022-09-09T06:15:20;96815.34;;;19.46;41.78
47080;BME280;33067;49.296;14.470;2022-09-09T06:17:58;96816.45;;;19.40;41.82
47080;BME280;33067;49.296;14.470;2022-09-09T06:19:53;96813.18;;;19.38;42.02
47080;BME280;33067;49.296;14.470;2022-09-09T06:22:21;96814.05;;;19.34;42.12
47080;BME280;33067;49.296;14.470;2022-09-09T06:24:39;96815.02;;;19.09;42.19
47080;BME280;33067;49.296;14.470;2022-09-09T06:27:08;96814.47;;;19.30;42.25
47080;BME280;33067;49.296;14.470;2022-09-09T06:29:29;96817.51;;;19.39;42.58
47080;BME280;33067;49.296;14.470;2022-09-09T06:31:54;96817.16;;;19.29;42.50
47080;BME280;33067;49.296;14.470;2022-09-09T06:34:19;96815.44;;;19.23;42.49
47080;BME280;33067;49.296;14.470;2022-09-09T06:36:44;96815.80;;;19.14;42.83
47080;BME280;33067;49.296;14.470;2022-09-09T06:39:09;96814.97;;;19.44;42.88
47080;BME280;33067;49.296;14.470;2022-09-09T06:41:34;96817.30;;;19.30;42.88
47080;BME280;33067;49.296;14.470;2022-09-09T06:44:18;96826.01;;;19.60;43.06
47080;BME280;33067;49.296;14.470;2022-09-09T06:46:26;96835.81;;;19.11;43.22
47080;BME280;33067;49.296;14.470;2022-09-09T06:48:50;96836.66;;;19.13;43.18
47080;BME280;33067;49.296;14.470;2022-09-09T06:51:17;96829.77;;;19.39;42.91
47080;BME280;33067;49.296;14.470;2022-09-09T06:53:49;96827.34;;;19.62;43.44
47080;BME280;33067;49.296;14.470;2022-09-09T06:56:17;96822.45;;;19.19;43.26
47080;BME280;33067;49.296;14.470;2022-09-09T06:58:31;96823.68;;;19.22;43.65
47080;BME280;33067;49.296;14.470;2022-09-09T07:01:09;96828.67;;;18.05;45.49
47080;BME280;33067;49.296;14.470;2022-09-09T07:03:26;96826.57;;;18.56;44.57
47080;BME280;33067;49.296;14.470;2022-09-09T07:05:56;96820.36;;;18.66;44.91
47080;BME280;33067;49.296;14.470;2022-09-09T07:08:11;96818.61;;;18.66;44.96
47080;BME280;33067;49.296;14.470;2022-09-09T07:10:36;96814.84;;;18.34;45.76
47080;BME280;33067;49.296;14.470;2022-09-09T07:13:02;96813.82;;;18.37;45.97
47080;BME280;33067;49.296;14.470;2022-09-09T07:15:27;96811.44;;;18.46;46.09
47080;BME280;33067;49.296;14.470;2022-09-09T07:17:52;96805.17;;;19.31;44.46
47080;BME280;33067;49.296;14.470;2022-09-09T07:20:18;96802.81;;;19.50;44.11
47080;BME280;33067;49.296;14.470;2022-09-09T07:22:42;96804.93;;;19.90;43.86
47080;BME280;33067;49.296;14.470;2022-09-09T07:25:08;96803.77;;;20.07;43.63
47080;BME280;33067;49.296;14.470;2022-09-09T07:27:33;96803.40;;;20.44;43.38
47080;BME280;33067;49.296;14.470;2022-09-09T07:29:58;96805.94;;;20.68;42.69
47080;BME280;33067;49.296;14.470;2022-09-09T07:32:24;96810.10;;;20.20;43.05
47080;BME280;33067;49.296;14.470;2022-09-09T07:34:49;96812.80;;;20.56;42.85
47080;BME280;33067;49.296;14.470;2022-09-09T07:37:14;96816.60;;;20.67;43.06
47080;BME280;33067;49.296;14.470;2022-09-09T07:39:46;96816.26;;;21.28;43.32
47080;BME280;33067;49.296;14.470;2022-09-09T07:42:04;96818.33;;;21.29;42.00
47080;BME280;33067;49.296;14.470;2022-09-09T07:44:29;96816.09;;;21.85;41.26
47080;BME280;33067;49.296;14.470;2022-09-09T07:46:54;96820.78;;;21.70;41.38
47080;BME280;33067;49.296;14.470;2022-09-09T07:49:19;96823.16;;;22.08;40.23
47080;BME280;33067;49.296;14.470;2022-09-09T07:51:46;96824.96;;;22.15;40.83
47080;BME280;33067;49.296;14.470;2022-09-09T07:54:11;96827.27;;;22.05;40.33
47080;BME280;33067;49.296;14.470;2022-09-09T07:56:34;96834.09;;;22.21;40.77
47080;BME280;33067;49.296;14.470;2022-09-09T07:58:59;96836.48;;;22.34;40.03
47080;BME280;33067;49.296;14.470;2022-09-09T08:01:27;96839.46;;;22.12;40.43
47080;BME280;33067;49.296;14.470;2022-09-09T08:03:53;96844.00;;;22.82;39.89
47080;BME280;33067;49.296;14.470;2022-09-09T08:06:14;96838.94;;;22.34;39.44
47080;BME280;33067;49.296;14.470;2022-09-09T08:08:40;96842.51;;;22.20;40.13
47080;BME280;33067;49.296;14.470;2022-09-09T08:11:06;96842.18;;;22.30;39.57
47080;BME280;33067;49.296;14.470;2022-09-09T08:13:29;96842.30;;;22.67;40.15
47080;BME280;33067;49.296;14.470;2022-09-09T08:15:54;96842.55;;;22.78;39.94
47080;BME280;33067;49.296;14.470;2022-09-09T08:18:20;96838.76;;;22.39;38.92
47080;BME280;33067;49.296;14.470;2022-09-09T08:20:45;96840.02;;;22.64;39.38
47080;BME280;33067;49.296;14.470;2022-09-09T08:23:10;96835.34;;;22.68;39.34
47080;BME280;33067;49.296;14.470;2022-09-09T08:25:35;96832.71;;;22.37;39.27
47080;BME280;33067;49.296;14.470;2022-09-09T08:28:00;96835.00;;;22.96;39.23
47080;BME280;33067;49.296;14.470;2022-09-09T08:30:25;96839.37;;;22.72;39.12
47080;BME280;33067;49.296;14.470;2022-09-09T08:32:51;96846.38;;;23.24;38.58
47080;BME280;33067;49.296;14.470;2022-09-09T08:35:16;96849.37;;;23.48;38.72
47080;BME280;33067;49.296;14.470;2022-09-09T08:37:42;96851.53;;;23.07;38.84
47080;BME280;33067;49.296;14.470;2022-09-09T08:40:17;96845.01;;;23.38;38.42
47080;BME280;33067;49.296;14.470;2022-09-09T08:42:38;96843.15;;;23.29;38.06
47080;BME280;33067;49.296;14.470;2022-09-09T08:45:16;96839.07;;;23.29;37.60
47080;BME280;33067;49.296;14.470;2022-09-09T08:47:32;96842.51;;;23.59;38.15
47080;BME280;33067;49.296;14.470;2022-09-09T08:50:04;96845.75;;;23.35;37.52
47080;BME280;33067;49.296;14.470;2022-09-09T08:52:23;96842.23;;;23.29;37.74
47080;BME280;33067;49.296;14.470;2022-09-09T08:54:43;96840.98;;;23.30;38.02
47080;BME280;33067;49.296;14.470;2022-09-09T08:57:13;96841.97;;;23.32;38.11
47080;BME280;33067;49.296;14.470;2022-09-09T08:59:35;96837.53;;;23.20;38.65
47080;BME280;33067;49.296;14.470;2022-09-09T09:02:08;96831.04;;;23.43;38.62
47080;BME280;33067;49.296;14.470;2022-09-09T09:04:38;96829.25;;;23.26;38.38
47080;BME280;33067;49.296;14.470;2022-09-09T09:07:00;96832.15;;;23.42;38.83
47080;BME280;33067;49.296;14.470;2022-09-09T09:09:23;96830.92;;;23.13;38.93
47080;BME280;33067;49.296;14.470;2022-09-09T09:11:48;96827.37;;;23.39;38.35
47080;BME280;33067;49.296;14.470;2022-09-09T09:14:15;96825.72;;;23.35;38.29
47080;BME280;33067;49.296;14.470;2022-09-09T09:16:41;96826.82;;;23.39;38.70
47080;BME280;33067;49.296;14.470;2022-09-09T09:19:02;96824.41;;;23.50;38.69
47080;BME280;33067;49.296;14.470;2022-09-09T09:21:34;96827.90;;;23.38;38.77
47080;BME280;33067;49.296;14.470;2022-09-09T09:23:57;96832.34;;;23.51;38.61
47080;BME280;33067;49.296;14.470;2022-09-09T09:26:20;96830.34;;;23.63;38.52
47080;BME280;33067;49.296;14.470;2022-09-09T09:28:45;96829.77;;;23.79;38.13
47080;BME280;33067;49.296;14.470;2022-09-09T09:31:12;96828.39;;;24.07;38.25
47080;BME280;33067;49.296;14.470;2022-09-09T09:33:44;96823.45;;;23.95;38.20
47080;BME280;33067;49.296;14.470;2022-09-09T09:36:04;96825.17;;;23.90;38.55
47080;BME280;33067;49.296;14.470;2022-09-09T09:38:29;96823.20;;;24.07;37.94
47080;BME280;33067;49.296;14.470;2022-09-09T09:40:56;96826.20;;;24.18;38.39
47080;BME280;33067;49.296;14.470;2022-09-09T09:43:24;96826.80;;;24.30;37.91
47080;BME280;33067;49.296;14.470;2022-09-09T09:45:46;96825.93;;;24.30;38.51
47080;BME280;33067;49.296;14.470;2022-09-09T09:48:13;96827.25;;;24.36;38.46
47080;BME280;33067;49.296;14.470;2022-09-09T09:50:47;96830.55;;;24.03;38.19
47080;BME280;33067;49.296;14.470;2022-09-09T09:53:04;96824.99;;;24.58;37.86
47080;BME280;33067;49.296;14.470;2022-09-09T09:55:31;96819.21;;;24.51;38.03
47080;BME280;33067;49.296;14.470;2022-09-09T09:58:02;96810.16;;;24.50;37.68
47080;BME280;33067;49.296;14.470;2022-09-09T10:00:22;96802.79;;;24.60;37.79
47080;BME280;33067;49.296;14.470;2022-09-09T10:02:48;96800.13;;;24.43;37.89
47080;BME280;33067;49.296;14.470;2022-09-09T10:05:15;96803.70;;;24.42;37.83
47080;BME280;33067;49.296;14.470;2022-09-09T10:07:38;96801.17;;;24.61;37.91
47080;BME280;33067;49.296;14.470;2022-09-09T10:10:08;96798.65;;;24.45;37.56
47080;BME280;33067;49.296;14.470;2022-09-09T10:12:37;96798.87;;;24.77;37.81
47080;BME280;33067;49.296;14.470;2022-09-09T10:15:01;96797.76;;;24.59;38.00
47080;BME280;33067;49.296;14.470;2022-09-09T10:17:25;96796.07;;;24.74;37.93
47080;BME280;33067;49.296;14.470;2022-09-09T10:19:57;96801.73;;;25.04;37.95
47080;BME280;33067;49.296;14.470;2022-09-09T10:22:24;96799.56;;;24.58;37.68
47080;BME280;33067;49.296;14.470;2022-09-09T10:24:49;96797.77;;;25.06;37.73
47080;BME280;33067;49.296;14.470;2022-09-09T10:27:10;96797.09;;;25.08;37.35
47080;BME280;33067;49.296;14.470;2022-09-09T10:29:41;96793.68;;;25.02;36.96
47080;BME280;33067;49.296;14.470;2022-09-09T10:32:06;96790.32;;;25.11;37.01
47080;BME280;33067;49.296;14.470;2022-09-09T10:34:34;96789.79;;;25.16;37.19
47080;BME280;33067;49.296;14.470;2022-09-09T10:36:49;96783.54;;;25.52;36.71
47080;BME280;33067;49.296;14.470;2022-09-09T10:39:25;96782.54;;;25.06;37.14
47080;BME280;33067;49.296;14.470;2022-09-09T10:41:45;96782.52;;;25.47;37.07
47080;BME280;33067;49.296;14.470;2022-09-09T10:44:16;96782.61;;;25.53;37.34
47080;BME280;33067;49.296;14.470;2022-09-09T10:46:39;96784.42;;;25.68;37.63
47080;BME280;33067;49.296;14.470;2022-09-09T10:49:08;96783.02;;;25.83;36.77
47080;BME280;33067;49.296;14.470;2022-09-09T10:51:30;96783.98;;;25.72;35.91
47080;BME280;33067;49.296;14.470;2022-09-09T10:53:56;96782.21;;;25.74;36.44
47080;BME280;33067;49.296;14.470;2022-09-09T10:56:16;96783.20;;;26.04;36.30
47080;BME280;33067;49.296;14.470;2022-09-09T10:58:44;96779.91;;;25.92;36.04
47080;BME280;33067;49.296;14.470;2022-09-09T11:01:12;96780.00;;;25.91;35.66
47080;BME280;33067;49.296;14.470;2022-09-09T11:03:33;96773.96;;;25.91;35.10
47080;BME280;33067;49.296;14.470;2022-09-09T11:06:00;96773.64;;;26.06;34.88
47080;BME280;33067;49.296;14.470;2022-09-09T11:08:26;96781.01;;;26.06;34.39
47080;BME280;33067;49.296;14.470;2022-09-09T11:10:55;96785.11;;;26.04;34.23
47080;BME280;33067;49.296;14.470;2022-09-09T11:13:19;96785.44;;;26.22;34.25
47080;BME280;33067;49.296;14.470;2022-09-09T11:15:44;96787.74;;;26.29;34.02
47080;BME280;33067;49.296;14.470;2022-09-09T11:18:09;96789.18;;;26.30;33.99
47080;BME280;33067;49.296;14.470;2022-09-09T11:20:32;96789.92;;;26.34;34.29
47080;BME280;33067;49.296;14.470;2022-09-09T11:23:00;96788.24;;;26.38;35.17
47080;BME280;33067;49.296;14.470;2022-09-09T11:25:32;96784.21;;;26.43;35.55
47080;BME280;33067;49.296;14.470;2022-09-09T11:28:00;96781.00;;;26.05;35.32
47080;BME280;33067;49.296;14.470;2022-09-09T11:30:21;96775.24;;;26.28;35.23
47080;BME280;33067;49.296;14.470;2022-09-09T11:32:58;96769.94;;;26.38;34.96
47080;BME280;33067;49.296;14.470;2022-09-09T11:35:19;96769.13;;;26.36;35.44
47080;BME280;33067;49.296;14.470;2022-09-09T11:37:50;96768.30;;;26.17;35.54
47080;BME280;33067;49.296;14.470;2022-09-09T11:40:14;96764.80;;;26.17;34.60
47080;BME280;33067;49.296;14.470;2022-09-09T11:42:24;96765.39;;;26.15;34.26
47080;BME280;33067;49.296;14.470;2022-09-09T11:44:50;96765.94;;;26.21;33.27
47080;BME280;33067;49.296;14.470;2022-09-09T11:47:20;96767.44;;;25.86;32.94
47080;BME280;33067;49.296;14.470;2022-09-09T11:49:42;96770.17;;;26.01;32.99
47080;BME280;33067;49.296;14.470;2022-09-09T11:52:11;96767.80;;;26.05;32.94
47080;BME280;33067;49.296;14.470;2022-09-09T11:54:33;96766.77;;;26.16;33.41
47080;BME280;33067;49.296;14.470;2022-09-09T11:56:58;96766.00;;;26.22;34.01
47080;BME280;33067;49.296;14.470;2022-09-09T11:59:26;96767.50;;;26.01;34.70
47080;BME280;33067;49.296;14.470;2022-09-09T12:01:53;96770.27;;;26.34;34.30
47080;BME280;33067;49.296;14.470;2022-09-09T12:04:30;96772.54;;;26.33;34.38
47080;BME280;33067;49.296;14.470;2022-09-09T12:06:45;96772.29;;;26.36;34.55
47080;BME280;33067;49.296;14.470;2022-09-09T12:09:17;96769.18;;;26.43;34.68
47080;BME280;33067;49.296;14.470;2022-09-09T12:11:38;96769.27;;;26.06;34.69
47080;BME280;33067;49.296;14.470;2022-09-09T12:16:32;96769.59;;;26.10;33.72
47080;BME280;33067;49.296;14.470;2022-09-09T12:18:52;96766.20;;;26.32;33.88
47080;BME280;33067;49.296;14.470;2022-09-09T12:21:21;96765.61;;;26.16;34.45
47080;BME280;33067;49.296;14.470;2022-09-09T12:23:47;96769.69;;;26.07;34.18
47080;BME280;33067;49.296;14.470;2022-09-09T12:26:20;96771.40;;;26.06;34.71
47080;BME280;33067;49.296;14.470;2022-09-09T12:28:43;96773.48;;;25.47;34.82
47080;BME280;33067;49.296;14.470;2022-09-09T12:31:04;96768.63;;;25.88;34.81
47080;BME280;33067;49.296;14.470;2022-09-09T12:33:25;96765.28;;;25.82;34.83
47080;BME280;33067;49.296;14.470;2022-09-09T12:35:55;96759.19;;;25.71;35.23
47080;BME280;33067;49.296;14.470;2022-09-09T12:38:23;96754.64;;;25.35;35.26
47080;BME280;33067;49.296;14.470;2022-09-09T12:40:42;96752.71;;;25.17;35.06
47080;BME280;33067;49.296;14.470;2022-09-09T12:43:17;96752.01;;;25.29;35.12
47080;BME280;33067;49.296;14.470;2022-09-09T12:45:33;96750.10;;;25.50;35.40
47080;BME280;33067;49.296;14.470;2022-09-09T12:48:01;96748.65;;;25.52;35.15
47080;BME280;33067;49.296;14.470;2022-09-09T12:50:27;96750.87;;;25.38;35.01
47080;BME280;33067;49.296;14.470;2022-09-09T12:52:52;96753.79;;;25.42;35.40
47080;BME280;33067;49.296;14.470;2022-09-09T12:55:19;96756.55;;;25.62;35.74
47080;BME280;33067;49.296;14.470;2022-09-09T12:57:43;96758.57;;;25.66;35.65
47080;BME280;33067;49.296;14.470;2022-09-09T13:00:15;96761.17;;;26.03;34.86
47080;BME280;33067;49.296;14.470;2022-09-09T13:02:45;96757.30;;;25.84;34.64
47080;BME280;33067;49.296;14.470;2022-09-09T13:05:06;96756.55;;;26.27;34.51